Moore, Idaho
Current Conditions -  °F | °C
As of 9:47 AM on Thursday 27 Nov 2014 (Local Time) from KSUN Reporting Station
Broken Clouds Broken Clouds  
Wind Chill: 41°   Ceiling: 14000
Heat Index: 45°   Visibility: 10mi
Dew Point: 30°   Wind: 7mph
Humidity: 57%   Direction: 290°WNW
Pressure: 30.26"   Gusts: NA
Location:  43.74°N, 113.37°W
Report Text: KSUN 271647Z 29006KT 10SM SCT070 BKN140 07/M01 A3026
Loading
Personal Weather Stations






























Interactive Weather Map New forecast layout! Learn more

10-Day Weather Forecast

Advertisements
Track Severe Weather on mobile